Time;durP1;ratioP1;P1;durP2;ratioP2;P2;SDS_P1;SDS_P2;PMS_P1;PMS_P2;Temp;Humidity;BMP_temperature;BMP_pressure;BME280_temperature;BME280_humidity;BME280_pressure;Samples;Min_cycle;Max_cycle;Signal;HPM_P1;HPM_P2
2024/03/18 00:01:07;;;;;;;0.47;0.27;;;10.70;99.90;;;;;;5025461;28;20224;-62
2024/03/18 00:03:36;;;;;;;1.50;0.27;;;;;;;;;;5011887;28;20205;-62
2024/03/18 00:06:03;;;;;;;0.20;0.20;;;10.80;99.90;;;;;;5033297;28;20676;-62
2024/03/18 00:08:30;;;;;;;2.23;0.20;;;10.80;99.90;;;;;;5020596;28;20255;-62
2024/03/18 00:10:57;;;;;;;0.60;0.20;;;10.70;99.90;;;;;;5021096;28;20249;-62
2024/03/18 00:13:24;;;;;;;1.33;0.20;;;10.40;99.90;;;;;;5014147;28;20213;-62
2024/03/18 00:15:51;;;;;;;1.67;0.20;;;10.50;99.90;;;;;;5007766;28;20271;-62
2024/03/18 00:18:18;;;;;;;0.30;0.30;;;10.50;99.90;;;;;;5007534;28;20255;-62
2024/03/18 00:20:47;;;;;;;0.10;0.10;;;10.60;99.90;;;;;;5024952;28;20659;-62
2024/03/18 00:23:14;;;;;;;0.20;0.20;;;10.60;99.90;;;;;;5028853;28;20258;-62
2024/03/18 00:25:41;;;;;;;0.63;0.20;;;10.70;99.90;;;;;;5021532;28;20198;-62
2024/03/18 00:28:10;;;;;;;0.30;0.30;;;10.60;99.90;;;;;;5017927;28;20206;-62
2024/03/18 00:30:37;;;;;;;0.77;0.20;;;10.70;99.90;;;;;;5009105;28;20257;-62
2024/03/18 00:33:04;;;;;;;1.87;0.90;;;10.60;99.90;;;;;;5012371;28;20858;-62
2024/03/18 00:35:31;;;;;;;0.70;0.40;;;10.60;99.90;;;;;;5021006;28;20894;-62
2024/03/18 00:37:59;;;;;;;0.90;0.40;;;10.60;99.90;;;;;;5013296;28;20210;-62
2024/03/18 00:40:26;;;;;;;1.33;1.00;;;10.60;99.90;;;;;;5014140;28;20233;-62
2024/03/18 00:42:52;;;;;;;0.43;0.20;;;10.60;99.90;;;;;;5014479;28;20207;-62
2024/03/18 00:45:19;;;;;;;2.20;0.20;;;10.60;99.90;;;;;;5020289;28;20199;-62
2024/03/18 00:47:47;;;;;;;0.83;0.30;;;10.60;99.90;;;;;;5027897;28;20227;-62
2024/03/18 00:50:14;;;;;;;0.20;0.20;;;10.50;99.90;;;;;;5032593;28;20271;-62
2024/03/18 00:52:45;;;;;;;1.20;0.10;;;10.50;99.90;;;;;;5001385;28;20213;-62
2024/03/18 00:55:13;;;;;;;0.33;0.20;;;10.50;99.90;;;;;;5013586;28;20270;-62
2024/03/18 00:57:43;;;;;;;1.37;0.20;;;10.50;99.90;;;;;;5013977;28;20205;-62
2024/03/18 01:00:12;;;;;;;0.40;0.40;;;10.50;99.90;;;;;;5025107;28;20243;-62
2024/03/18 01:02:40;;;;;;;0.20;0.20;;;10.50;99.90;;;;;;5023300;28;20210;-62
2024/03/18 01:05:09;;;;;;;0.37;0.37;;;10.50;99.90;;;;;;5020767;28;20626;-62
2024/03/18 01:07:37;;;;;;;1.90;0.30;;;10.40;99.90;;;;;;5012491;28;20294;-62
2024/03/18 01:10:05;;;;;;;0.60;0.30;;;10.40;99.90;;;;;;5018384;28;20220;-62
2024/03/18 01:12:34;;;;;;;0.20;0.20;;;10.40;99.90;;;;;;5024883;28;20197;-62
2024/03/18 01:15:01;;;;;;;0.43;0.40;;;10.40;99.90;;;;;;5033082;28;20634;-62
2024/03/18 01:17:28;;;;;;;0.33;0.33;;;10.40;99.90;;;;;;5031486;28;20201;-62
2024/03/18 01:19:55;;;;;;;0.80;0.30;;;10.30;99.90;;;;;;5032744;28;20263;-62
2024/03/18 01:22:22;;;;;;;0.33;0.33;;;10.30;99.90;;;;;;5009440;28;20666;-62
2024/03/18 01:24:49;;;;;;;0.67;0.47;;;10.30;99.90;;;;;;5013562;28;20290;-62
2024/03/18 01:27:16;;;;;;;0.20;0.20;;;10.30;99.90;;;;;;5012263;28;20217;-62
2024/03/18 01:29:45;;;;;;;0.53;0.33;;;10.30;99.90;;;;;;5012770;28;20209;-62
2024/03/18 01:32:12;;;;;;;0.50;0.50;;;10.30;99.90;;;;;;5025884;28;20221;-62
2024/03/18 01:34:39;;;;;;;0.73;0.30;;;10.30;99.90;;;;;;5025680;28;20210;-62
2024/03/18 01:37:08;;;;;;;0.47;0.40;;;10.30;99.90;;;;;;5029002;28;20254;-62
2024/03/18 01:39:35;;;;;;;0.60;0.20;;;10.30;99.90;;;;;;5032943;28;20203;-62
2024/03/18 01:42:02;;;;;;;0.90;0.30;;;10.20;99.90;;;;;;5002410;28;20220;-62
2024/03/18 01:44:29;;;;;;;1.23;0.20;;;10.20;99.90;;;;;;4999471;28;20667;-62
2024/03/18 01:46:57;;;;;;;3.53;1.90;;;10.20;99.90;;;;;;5024687;28;20650;-62
2024/03/18 01:49:24;;;;;;;2.50;1.83;;;10.20;99.90;;;;;;5028593;28;20742;-62
2024/03/18 01:51:51;;;;;;;2.03;1.20;;;10.20;99.90;;;;;;5012554;28;20311;-62
2024/03/18 01:54:18;;;;;;;2.17;1.03;;;10.20;99.90;;;;;;5012917;28;20260;-62
2024/03/18 01:56:45;;;;;;;0.67;0.40;;;10.20;99.90;;;;;;5011807;28;20202;-62
2024/03/18 01:59:12;;;;;;;1.40;0.67;;;10.30;99.90;;;;;;5018866;28;20197;-63
2024/03/18 02:01:40;;;;;;;0.87;0.47;;;10.30;99.90;;;;;;5019768;28;20234;-62
2024/03/18 02:04:09;;;;;;;0.57;0.50;;;10.50;99.90;;;;;;5012165;28;20256;-62
2024/03/18 02:06:38;;;;;;;0.80;0.80;;;10.50;99.90;;;;;;5011780;28;20204;-62
2024/03/18 02:09:05;;;;;;;0.90;0.90;;;10.50;99.90;;;;;;5009833;28;20256;-62
2024/03/18 02:11:32;;;;;;;1.83;0.50;;;10.40;99.90;;;;;;5011237;28;20257;-65
2024/03/18 02:13:59;;;;;;;1.17;0.40;;;10.40;99.90;;;;;;5022817;28;20699;-62
2024/03/18 02:16:27;;;;;;;0.30;0.30;;;10.30;99.90;;;;;;5013628;28;20657;-62
2024/03/18 02:18:54;;;;;;;0.50;0.50;;;10.30;99.90;;;;;;5002926;28;20549;-62
2024/03/18 02:21:22;;;;;;;1.47;0.70;;;10.30;99.90;;;;;;5020020;28;20223;-62
2024/03/18 02:23:50;;;;;;;0.57;0.53;;;10.30;99.90;;;;;;5026222;28;20252;-62
2024/03/18 02:26:17;;;;;;;0.30;0.30;;;10.30;99.90;;;;;;5019156;28;20877;-62
2024/03/18 02:28:46;;;;;;;1.33;0.60;;;10.20;99.90;;;;;;5024591;28;20636;-62
2024/03/18 02:31:13;;;;;;;1.07;0.60;;;10.10;99.90;;;;;;5019757;28;20621;-62
2024/03/18 02:33:40;;;;;;;2.00;0.60;;;10.10;99.90;;;;;;5011939;28;20210;-62
2024/03/18 02:36:08;;;;;;;0.70;0.70;;;10.00;99.90;;;;;;5004820;28;20731;-62
2024/03/18 02:38:35;;;;;;;2.03;0.60;;;10.00;99.90;;;;;;5021695;28;20212;-62
2024/03/18 02:41:04;;;;;;;0.40;0.40;;;10.10;99.90;;;;;;5011911;28;20662;-62
2024/03/18 02:43:31;;;;;;;0.50;0.50;;;10.00;99.90;;;;;;5011805;28;20252;-62
2024/03/18 02:45:58;;;;;;;0.60;0.60;;;10.00;99.90;;;;;;5018851;28;20927;-62
2024/03/18 02:48:26;;;;;;;1.40;0.50;;;10.00;99.90;;;;;;5026055;28;20707;-62
2024/03/18 02:50:53;;;;;;;1.13;0.63;;;9.90;99.90;;;;;;5021779;28;20233;-62
2024/03/18 02:53:20;;;;;;;1.03;0.40;;;10.00;99.90;;;;;;5028130;28;20559;-62
2024/03/18 02:55:47;;;;;;;0.70;0.70;;;10.00;99.90;;;;;;5011570;28;20213;-63
2024/03/18 02:58:16;;;;;;;0.27;0.27;;;10.00;99.90;;;;;;5007276;28;20203;-62
2024/03/18 03:00:44;;;;;;;0.83;0.50;;;10.00;99.90;;;;;;5011651;28;20233;-61
2024/03/18 03:03:11;;;;;;;1.03;0.63;;;10.00;99.90;;;;;;5018460;28;20212;-61
2024/03/18 03:05:38;;;;;;;0.40;0.40;;;10.00;99.90;;;;;;5031480;28;20229;-61
2024/03/18 03:08:05;;;;;;;0.50;0.50;;;9.90;99.90;;;;;;5030610;28;20217;-61
2024/03/18 03:10:32;;;;;;;1.03;0.30;;;9.90;99.90;;;;;;5031242;28;20222;-61
2024/03/18 03:12:59;;;;;;;0.40;0.40;;;9.90;99.90;;;;;;5031317;28;20271;-61
2024/03/18 03:15:29;;;;;;;1.00;0.40;;;9.90;99.90;;;;;;5003048;28;20233;-61
2024/03/18 03:17:55;;;;;;;1.17;0.40;;;9.90;99.90;;;;;;5028000;28;20702;-61
2024/03/18 03:20:30;;;;;;;0.27;0.27;;;10.00;99.90;;;;;;5031522;28;20256;-61
2024/03/18 03:22:57;;;;;;;2.23;0.40;;;9.90;99.90;;;;;;5035171;28;20287;-61
2024/03/18 03:25:24;;;;;;;1.37;0.30;;;9.90;99.90;;;;;;5031079;28;20205;-61
2024/03/18 03:27:51;;;;;;;2.13;0.40;;;9.90;99.90;;;;;;5023697;28;20205;-61
2024/03/18 03:30:18;;;;;;;1.57;0.83;;;10.00;99.90;;;;;;5016443;28;20229;-62
2024/03/18 03:32:50;;;;;;;2.53;0.77;;;10.00;99.90;;;;;;5005218;28;20230;-61
2024/03/18 03:35:18;;;;;;;1.50;1.40;;;9.90;99.90;;;;;;5005998;28;20666;-61
2024/03/18 03:37:49;;;;;;;1.17;1.17;;;10.00;99.90;;;;;;5012865;28;20203;-61
2024/03/18 03:40:16;;;;;;;1.27;1.20;;;10.00;99.90;;;;;;5023454;28;20222;-60
2024/03/18 03:42:44;;;;;;;0.83;0.67;;;10.00;99.90;;;;;;5034063;28;20203;-61
2024/03/18 03:45:12;;;;;;;1.43;0.50;;;10.00;99.90;;;;;;5003247;28;20683;-61
2024/03/18 03:47:39;;;;;;;0.50;0.50;;;9.90;99.90;;;;;;5025952;28;20203;-61
2024/03/18 03:50:10;;;;;;;0.37;0.30;;;9.90;99.90;;;;;;5022887;28;20594;-61
2024/03/18 03:52:37;;;;;;;0.97;0.50;;;9.80;99.90;;;;;;5033093;28;20326;-61
2024/03/18 03:55:04;;;;;;;2.03;0.40;;;9.90;99.90;;;;;;5030799;28;20206;-61
2024/03/18 03:57:31;;;;;;;1.03;0.23;;;9.80;99.90;;;;;;5021002;28;20217;-61
2024/03/18 03:59:58;;;;;;;1.37;0.47;;;9.90;99.90;;;;;;5026532;28;20209;-61
2024/03/18 04:02:25;;;;;;;1.73;0.30;;;9.90;99.90;;;;;;5024664;28;20202;-61
2024/03/18 04:04:52;;;;;;;0.33;0.33;;;9.90;99.90;;;;;;5014179;28;20195;-61
2024/03/18 04:07:23;;;;;;;3.73;0.40;;;10.00;99.90;;;;;;5021514;28;20216;-61
2024/03/18 04:09:50;;;;;;;2.67;0.40;;;10.00;99.90;;;;;;5013581;28;20662;-61
2024/03/18 04:12:18;;;;;;;0.60;0.47;;;10.00;99.90;;;;;;5022399;28;20221;-61
2024/03/18 04:14:45;;;;;;;0.63;0.63;;;10.00;99.90;;;;;;5017490;28;20229;-61
2024/03/18 04:17:12;;;;;;;0.40;0.40;;;10.00;99.90;;;;;;5026159;28;20283;-61
2024/03/18 04:19:40;;;;;;;0.73;0.47;;;10.10;99.90;;;;;;5012246;28;20204;-61
2024/03/18 04:22:07;;;;;;;0.30;0.30;;;10.10;99.90;;;;;;5012371;28;20257;-61
2024/03/18 04:24:36;;;;;;;0.80;0.30;;;10.10;99.90;;;;;;5017352;28;20283;-61
2024/03/18 04:27:05;;;;;;;0.83;0.83;;;10.00;99.90;;;;;;4994038;28;20260;-61
2024/03/18 04:29:32;;;;;;;0.30;0.30;;;10.10;99.90;;;;;;5025764;28;20211;-61
2024/03/18 04:31:59;;;;;;;1.03;0.20;;;10.10;99.90;;;;;;5033300;28;20287;-61
2024/03/18 04:34:27;;;;;;;1.30;0.33;;;10.10;99.90;;;;;;5012257;28;20269;-60
2024/03/18 04:36:54;;;;;;;1.37;0.40;;;10.00;99.90;;;;;;5008074;28;20325;-61
2024/03/18 04:39:22;;;;;;;0.33;0.30;;;10.00;99.90;;;;;;5006754;28;20250;-61
2024/03/18 04:41:50;;;;;;;0.50;0.50;;;9.90;99.90;;;;;;5009608;28;20260;-61
2024/03/18 04:44:17;;;;;;;0.57;0.57;;;9.90;99.90;;;;;;5000854;28;20207;-61
2024/03/18 04:46:44;;;;;;;1.40;0.67;;;9.90;99.90;;;;;;5010965;28;20249;-61
2024/03/18 04:49:11;;;;;;;1.37;0.63;;;9.90;99.90;;;;;;5012324;28;20252;-61
2024/03/18 04:51:38;;;;;;;1.30;0.67;;;9.80;99.90;;;;;;5011668;28;21040;-60
2024/03/18 04:54:05;;;;;;;1.20;0.30;;;9.80;99.90;;;;;;5011942;28;20205;-61
2024/03/18 04:56:33;;;;;;;0.50;0.30;;;9.80;99.90;;;;;;5009346;28;20674;-61
2024/03/18 04:59:01;;;;;;;0.83;0.40;;;9.80;99.90;;;;;;5012178;28;20268;-61
2024/03/18 05:01:28;;;;;;;0.43;0.43;;;9.80;99.90;;;;;;5004999;28;20753;-61
2024/03/18 05:03:55;;;;;;;0.63;0.50;;;9.70;99.90;;;;;;5013259;28;20673;-61
2024/03/18 05:06:22;;;;;;;2.80;0.90;;;9.70;99.90;;;;;;5007560;28;20222;-60
2024/03/18 05:08:49;;;;;;;3.13;0.67;;;9.70;99.90;;;;;;5006946;28;20206;-61
2024/03/18 05:11:16;;;;;;;1.13;0.50;;;9.80;99.90;;;;;;5011462;28;20305;-61
2024/03/18 05:13:43;;;;;;;2.13;0.80;;;9.80;99.90;;;;;;5007910;28;20205;-61
2024/03/18 05:16:12;;;;;;;2.33;1.10;;;9.70;99.90;;;;;;5009965;28;20201;-61
2024/03/18 05:18:39;;;;;;;0.60;0.60;;;9.70;99.90;;;;;;5009117;28;20262;-62
2024/03/18 05:21:07;;;;;;;3.37;1.03;;;9.60;99.90;;;;;;5007113;28;20304;-61
2024/03/18 05:23:34;;;;;;;0.53;0.53;;;9.60;99.90;;;;;;5011528;28;20198;-61
2024/03/18 05:26:01;;;;;;;1.60;0.77;;;9.70;99.90;;;;;;5008224;28;20199;-61
2024/03/18 05:28:28;;;;;;;0.83;0.60;;;9.70;99.90;;;;;;5004930;28;20197;-62
2024/03/18 05:30:55;;;;;;;1.57;0.73;;;9.60;99.90;;;;;;5007333;28;20279;-61
2024/03/18 05:33:23;;;;;;;0.97;0.97;;;9.60;99.90;;;;;;5003302;28;20229;-61
2024/03/18 05:35:50;;;;;;;2.27;0.60;;;9.70;99.90;;;;;;5001189;28;20209;-61
2024/03/18 05:38:18;;;;;;;4.70;0.80;;;9.60;99.90;;;;;;4997955;28;20756;-61
2024/03/18 05:40:45;;;;;;;3.80;0.90;;;9.60;99.90;;;;;;4995788;28;20253;-60
2024/03/18 05:43:12;;;;;;;0.80;0.80;;;9.60;99.90;;;;;;5005713;28;20201;-60
2024/03/18 05:45:39;;;;;;;1.93;0.93;;;9.60;99.90;;;;;;4999085;28;20260;-61
2024/03/18 05:48:07;;;;;;;0.50;0.50;;;9.60;99.90;;;;;;5004080;28;20581;-61
2024/03/18 05:50:35;;;;;;;1.33;0.73;;;9.60;99.90;;;;;;4999713;28;20289;-61
2024/03/18 05:53:03;;;;;;;2.97;0.80;;;9.60;99.90;;;;;;5002253;28;20229;-61
2024/03/18 05:55:30;;;;;;;0.60;0.60;;;9.70;99.90;;;;;;4994920;28;20210;-60
2024/03/18 05:58:02;;;;;;;1.50;0.80;;;9.70;99.90;;;;;;5001689;28;20209;-61
2024/03/18 06:00:29;;;;;;;0.80;0.80;;;9.60;99.90;;;;;;4997089;28;20241;-61
2024/03/18 06:02:56;;;;;;;5.03;0.80;;;9.60;99.90;;;;;;5006451;28;20197;-61
2024/03/18 06:05:24;;;;;;;0.70;0.63;;;9.60;99.90;;;;;;5006603;28;20222;-61
2024/03/18 06:07:52;;;;;;;2.33;0.60;;;9.70;99.90;;;;;;4996793;28;20214;-62
2024/03/18 06:10:19;;;;;;;0.57;0.57;;;9.60;99.90;;;;;;4994499;28;20690;-61
2024/03/18 06:12:46;;;;;;;1.67;0.90;;;9.60;99.90;;;;;;5000153;28;20268;-61
2024/03/18 06:15:13;;;;;;;2.80;0.50;;;9.70;99.90;;;;;;5008007;28;20259;-61
2024/03/18 06:17:41;;;;;;;2.53;0.70;;;9.60;99.90;;;;;;5010590;28;20275;-61
2024/03/18 06:20:11;;;;;;;0.70;0.40;;;9.60;99.90;;;;;;5009930;28;20223;-60
2024/03/18 06:22:38;;;;;;;2.70;0.60;;;9.40;99.90;;;;;;5007445;28;20195;-60
2024/03/18 06:27:52;;;;;;;0.93;0.33;;;9.50;99.90;;;;;;5005323;28;20837;-61
2024/03/18 06:30:19;;;;;;;4.03;0.90;;;9.40;99.90;;;;;;5007041;28;20732;-61
2024/03/18 06:32:47;;;;;;;6.60;1.47;;;9.50;99.90;;;;;;5011543;28;20225;-60
2024/03/18 06:35:14;;;;;;;2.83;0.60;;;9.40;99.90;;;;;;5003357;28;20730;-60
2024/03/18 06:37:41;;;;;;;2.77;0.80;;;9.40;99.90;;;;;;5009685;28;20257;-60
2024/03/18 06:40:11;;;;;;;0.60;0.60;;;9.40;99.90;;;;;;5006977;28;20225;-61
2024/03/18 06:42:39;;;;;;;0.40;0.40;;;9.50;99.90;;;;;;4999785;28;20745;-61
2024/03/18 06:45:07;;;;;;;0.90;0.30;;;9.50;99.90;;;;;;4996591;28;20214;-61
2024/03/18 06:47:34;;;;;;;0.60;0.60;;;9.50;99.90;;;;;;4994330;28;20203;-61
2024/03/18 06:50:01;;;;;;;1.20;0.60;;;9.40;99.90;;;;;;5002310;28;20213;-61
2024/03/18 06:52:28;;;;;;;3.27;0.50;;;9.40;99.90;;;;;;4997835;28;20227;-61
2024/03/18 06:54:55;;;;;;;0.93;0.50;;;9.50;99.90;;;;;;5002668;28;20209;-61
2024/03/18 06:57:27;;;;;;;2.07;0.80;;;9.50;99.90;;;;;;5009301;28;20248;-61
2024/03/18 06:59:54;;;;;;;2.20;0.97;;;9.50;99.90;;;;;;5006874;28;20199;-62
2024/03/18 07:02:21;;;;;;;0.73;0.53;;;9.50;99.90;;;;;;5011113;28;20634;-60
2024/03/18 07:04:48;;;;;;;0.83;0.83;;;9.50;99.90;;;;;;5005310;28;20804;-61
2024/03/18 07:07:14;;;;;;;1.73;0.50;;;9.40;99.90;;;;;;5006438;28;20255;-60
2024/03/18 07:09:41;;;;;;;0.73;0.70;;;9.50;99.90;;;;;;5008676;28;20201;-60
2024/03/18 07:12:09;;;;;;;1.57;0.93;;;9.50;99.90;;;;;;5012839;28;20205;-60
2024/03/18 07:14:37;;;;;;;0.90;0.60;;;9.50;99.90;;;;;;5011017;28;20233;-60
2024/03/18 07:17:04;;;;;;;0.60;0.60;;;9.50;99.90;;;;;;5013974;28;20292;-59
2024/03/18 07:19:31;;;;;;;4.07;2.23;;;9.60;99.90;;;;;;5013811;28;20206;-61
2024/03/18 07:22:00;;;;;;;4.23;3.17;;;9.60;99.90;;;;;;5013671;28;20713;-60
2024/03/18 07:24:28;;;;;;;1.80;1.00;;;9.50;99.90;;;;;;5015210;28;20212;-63
2024/03/18 07:26:55;;;;;;;1.90;0.93;;;9.40;99.90;;;;;;5010845;28;20209;-60
2024/03/18 07:29:22;;;;;;;2.57;0.90;;;9.40;99.90;;;;;;5018579;28;20244;-60
2024/03/18 07:31:56;;;;;;;1.90;0.90;;;9.30;99.90;;;;;;5013082;28;20222;-59
2024/03/18 07:34:23;;;;;;;1.67;1.03;;;9.40;99.90;;;;;;5014356;28;20704;-61
2024/03/18 07:36:51;;;;;;;2.63;0.80;;;9.40;99.90;;;;;;5013844;28;20263;-59
2024/03/18 07:39:18;;;;;;;1.63;0.80;;;9.50;99.90;;;;;;5014845;28;20209;-59
2024/03/18 07:41:45;;;;;;;2.10;1.20;;;9.60;99.90;;;;;;5014663;28;20223;-59
2024/03/18 07:44:11;;;;;;;3.53;1.77;;;9.60;99.90;;;;;;5013871;28;20258;-59
2024/03/18 07:46:38;;;;;;;1.57;0.63;;;9.60;99.90;;;;;;5013767;28;20205;-60
2024/03/18 07:49:07;;;;;;;3.33;1.10;;;9.60;99.90;;;;;;5015183;28;20201;-60
2024/03/18 07:51:33;;;;;;;2.17;0.70;;;9.70;99.90;;;;;;5027150;28;20225;-60
2024/03/18 07:54:01;;;;;;;1.33;0.93;;;9.70;99.90;;;;;;5031412;28;20671;-60
2024/03/18 07:56:28;;;;;;;2.87;0.70;;;9.70;99.90;;;;;;5033587;28;20670;-60
2024/03/18 07:58:55;;;;;;;1.80;1.00;;;9.80;99.90;;;;;;5013848;28;20208;-60
2024/03/18 08:01:24;;;;;;;5.00;1.33;;;9.80;99.90;;;;;;5022506;28;20243;-60
2024/03/18 08:03:52;;;;;;;2.00;0.70;;;9.90;99.90;;;;;;5015878;28;20262;-60
2024/03/18 08:06:21;;;;;;;1.23;1.10;;;9.90;99.90;;;;;;5028571;28;20249;-60
2024/03/18 08:08:48;;;;;;;2.00;1.13;;;9.90;99.90;;;;;;5007859;28;20716;-60
2024/03/18 08:11:15;;;;;;;3.23;1.70;;;10.00;99.90;;;;;;5018318;28;20234;-60
2024/03/18 08:13:42;;;;;;;1.77;1.10;;;9.90;99.90;;;;;;5025974;28;20221;-61
2024/03/18 08:16:09;;;;;;;3.57;1.00;;;9.90;99.90;;;;;;5026752;28;20693;-60
2024/03/18 08:18:36;;;;;;;3.50;1.43;;;9.80;99.90;;;;;;5023804;28;20202;-60
2024/03/18 08:21:03;;;;;;;3.07;1.53;;;9.80;99.90;;;;;;5014047;28;20648;-60
2024/03/18 08:23:32;;;;;;;3.90;1.73;;;9.90;99.90;;;;;;5013666;28;20236;-60
2024/03/18 08:25:59;;;;;;;2.00;1.10;;;9.90;99.90;;;;;;5014445;28;20244;-60
2024/03/18 08:28:25;;;;;;;4.87;2.90;;;10.00;99.90;;;;;;5010792;28;20252;-60
2024/03/18 08:30:52;;;;;;;2.93;1.30;;;9.90;99.90;;;;;;5003968;28;20220;-60
2024/03/18 08:33:19;;;;;;;4.87;1.60;;;10.00;99.90;;;;;;5020077;28;20278;-60
2024/03/18 08:35:50;;;;;;;3.27;1.63;;;10.00;99.90;;;;;;5019260;28;21573;-60
2024/03/18 08:38:17;;;;;;;2.53;1.43;;;10.00;99.90;;;;;;5020641;28;20209;-60
2024/03/18 08:40:52;;;;;;;1.93;1.10;;;10.00;99.90;;;;;;5014007;28;20274;-59
2024/03/18 08:43:19;;;;;;;1.83;1.07;;;10.00;99.90;;;;;;5017836;28;20216;-60
2024/03/18 08:45:52;;;;;;;2.27;1.20;;;9.90;99.90;;;;;;5030985;28;20677;-60
2024/03/18 08:48:19;;;;;;;1.30;1.20;;;9.90;99.90;;;;;;5018470;28;20208;-60
2024/03/18 08:50:46;;;;;;;0.97;0.97;;;10.00;99.90;;;;;;5017718;28;20713;-60
2024/03/18 08:53:13;;;;;;;1.33;1.07;;;10.10;99.90;;;;;;5014512;28;20226;-60
2024/03/18 08:55:40;;;;;;;2.23;1.30;;;10.00;99.90;;;;;;5009173;28;20289;-60
2024/03/18 08:58:08;;;;;;;3.30;1.50;;;9.90;99.90;;;;;;5005818;28;20202;-60
2024/03/18 09:00:35;;;;;;;1.47;1.13;;;9.90;99.90;;;;;;5011329;28;20229;-60
2024/03/18 09:03:03;;;;;;;1.73;1.63;;;10.00;99.90;;;;;;5116766;22;20850;-65
2024/03/18 09:05:30;;;;;;;3.33;1.47;;;10.00;99.90;;;;;;5086210;28;20523;-64
2024/03/18 09:07:57;;;;;;;1.77;1.57;;;10.00;99.90;;;;;;5071637;28;20203;-64
2024/03/18 09:10:24;;;;;;;2.37;1.40;;;10.00;99.90;;;;;;5072228;28;20207;-64
2024/03/18 09:12:52;;;;;;;0.97;0.97;;;;;;;;;;5065902;28;20294;-64
2024/03/18 09:15:21;;;;;;;2.73;1.37;;;;;;;;;;5043342;28;20208;-64
2024/03/18 09:17:52;;;;;;;1.97;1.40;;;;;;;;;;5049894;28;20200;-65
2024/03/18 09:20:19;;;;;;;1.70;0.90;;;;;;;;;;5051925;28;20257;-64
2024/03/18 09:22:48;;;;;;;1.93;0.90;;;9.80;99.90;;;;;;5048560;28;20233;-64
2024/03/18 09:25:15;;;;;;;2.43;0.83;;;;;;;;;;5051380;28;20279;-64
2024/03/18 09:27:43;;;;;;;0.93;0.93;;;;;;;;;;5050596;28;20208;-64
2024/03/18 09:30:10;;;;;;;1.43;0.80;;;;;;;;;;5048423;28;20196;-64
2024/03/18 09:32:39;;;;;;;1.03;0.90;;;9.80;99.90;;;;;;5044908;28;20225;-64
2024/03/18 09:35:07;;;;;;;1.70;1.60;;;9.80;99.90;;;;;;5052347;28;20243;-64
2024/03/18 09:37:34;;;;;;;0.97;0.97;;;9.90;99.90;;;;;;5049760;28;20583;-64
2024/03/18 09:40:01;;;;;;;1.47;1.37;;;9.80;99.90;;;;;;5048078;28;20213;-64
2024/03/18 09:42:29;;;;;;;2.00;1.40;;;9.70;99.90;;;;;;5050333;28;20266;-65
2024/03/18 09:44:57;;;;;;;1.60;1.33;;;9.70;99.90;;;;;;5049831;28;20630;-65
2024/03/18 09:47:25;;;;;;;3.20;1.13;;;9.80;99.90;;;;;;5045946;28;20900;-65
2024/03/18 09:49:54;;;;;;;4.50;0.83;;;9.90;99.90;;;;;;5047620;28;20208;-65
2024/03/18 09:52:22;;;;;;;1.83;1.30;;;9.90;99.90;;;;;;5047867;28;20218;-65
2024/03/18 09:54:50;;;;;;;0.90;0.90;;;9.80;99.90;;;;;;5051407;28;20715;-66
2024/03/18 09:57:24;;;;;;;1.77;0.70;;;9.80;99.90;;;;;;5046194;28;20204;-65
2024/03/18 09:59:51;;;;;;;2.70;0.80;;;9.70;99.90;;;;;;5054981;28;20200;-65
2024/03/18 10:02:18;;;;;;;0.97;0.80;;;9.70;99.90;;;;;;5066557;28;20233;-65
2024/03/18 10:04:46;;;;;;;0.90;0.70;;;9.70;99.90;;;;;;5063937;28;20729;-65
2024/03/18 10:07:16;;;;;;;1.73;1.10;;;9.70;99.90;;;;;;5058417;28;20730;-64
2024/03/18 10:09:46;;;;;;;1.67;0.70;;;9.70;99.90;;;;;;5049881;28;20289;-65
2024/03/18 10:12:14;;;;;;;1.43;1.00;;;9.50;99.90;;;;;;5046543;28;20219;-65
2024/03/18 10:14:42;;;;;;;1.77;1.00;;;9.50;99.90;;;;;;5039404;28;20266;-65
2024/03/18 10:17:15;;;;;;;1.40;1.20;;;9.50;99.90;;;;;;5044996;28;20208;-64
2024/03/18 10:19:42;;;;;;;2.63;1.40;;;9.50;99.90;;;;;;5059902;28;20232;-64
2024/03/18 10:22:12;;;;;;;2.37;0.83;;;9.50;99.90;;;;;;5065059;28;20217;-64
2024/03/18 10:24:41;;;;;;;1.23;0.90;;;9.40;99.90;;;;;;5071564;28;20693;-64
2024/03/18 10:27:08;;;;;;;1.20;1.00;;;9.30;99.90;;;;;;5054098;28;20244;-64
2024/03/18 10:29:34;;;;;;;4.23;1.60;;;9.30;99.90;;;;;;5060648;28;20199;-64
2024/03/18 10:32:02;;;;;;;3.10;1.90;;;9.30;99.90;;;;;;5051517;28;20612;-64
2024/03/18 10:34:35;;;;;;;3.03;1.60;;;9.30;99.90;;;;;;5044260;28;20224;-64
2024/03/18 10:37:04;;;;;;;2.33;1.00;;;9.30;99.90;;;;;;5053139;28;20264;-64
2024/03/18 10:39:39;;;;;;;6.10;1.60;;;9.30;99.90;;;;;;5043973;28;20247;-64
2024/03/18 10:42:15;;;;;;;2.67;1.70;;;9.30;99.90;;;;;;5053172;28;20226;-64
2024/03/18 10:44:52;;;;;;;2.83;1.20;;;9.30;99.90;;;;;;5043730;28;20202;-65
2024/03/18 10:47:19;;;;;;;2.23;1.30;;;9.30;99.90;;;;;;5054425;28;20208;-64
2024/03/18 10:49:47;;;;;;;1.53;1.43;;;9.40;99.90;;;;;;5041144;28;20309;-64
2024/03/18 10:52:15;;;;;;;2.90;1.67;;;9.40;99.90;;;;;;5043085;28;20278;-64
2024/03/18 10:54:42;;;;;;;3.60;2.10;;;9.60;99.90;;;;;;5045839;28;20225;-64
2024/03/18 10:57:11;;;;;;;3.40;1.70;;;9.50;99.90;;;;;;5061009;28;20215;-65
2024/03/18 10:59:39;;;;;;;1.57;1.37;;;9.60;99.90;;;;;;5056013;28;20208;-64
2024/03/18 11:02:11;;;;;;;3.43;1.70;;;9.70;99.90;;;;;;5055664;28;20228;-65
2024/03/18 11:04:41;;;;;;;1.23;1.13;;;9.60;99.90;;;;;;5059303;28;20200;-65
2024/03/18 11:07:10;;;;;;;2.67;1.20;;;9.70;99.90;;;;;;5060019;28;20203;-65
2024/03/18 11:09:39;;;;;;;5.20;1.63;;;9.70;99.90;;;;;;5054835;28;20199;-64
2024/03/18 11:12:08;;;;;;;1.60;1.50;;;9.70;99.90;;;;;;5055410;28;20591;-65
2024/03/18 11:14:37;;;;;;;1.50;1.47;;;9.70;99.90;;;;;;5054341;28;20266;-64
2024/03/18 11:17:07;;;;;;;1.63;1.40;;;9.70;99.90;;;;;;5062323;28;20253;-65
2024/03/18 11:19:34;;;;;;;2.10;1.50;;;9.80;99.90;;;;;;5056686;28;20208;-65
2024/03/18 11:22:04;;;;;;;1.60;1.20;;;9.80;99.90;;;;;;5049805;28;20234;-65
2024/03/18 11:24:32;;;;;;;1.60;1.50;;;10.00;99.90;;;;;;5058662;28;20672;-65
2024/03/18 11:27:00;;;;;;;1.17;1.07;;;9.90;99.90;;;;;;5050907;28;20251;-65
2024/03/18 11:29:31;;;;;;;4.93;1.83;;;9.90;99.90;;;;;;5054432;28;20203;-65
2024/03/18 11:32:02;;;;;;;2.13;1.90;;;9.90;99.90;;;;;;5047899;28;20258;-64
2024/03/18 11:34:34;;;;;;;2.80;1.77;;;9.90;99.90;;;;;;5046182;28;20248;-64
2024/03/18 11:37:02;;;;;;;2.63;1.40;;;10.00;99.90;;;;;;5043596;28;20203;-64
2024/03/18 11:39:30;;;;;;;1.20;0.90;;;10.00;99.90;;;;;;5060270;28;20203;-64
2024/03/18 11:42:00;;;;;;;0.90;0.90;;;10.10;99.90;;;;;;5049811;28;20232;-64
2024/03/18 11:44:27;;;;;;;1.53;1.07;;;10.10;99.90;;;;;;5057673;28;20203;-65
2024/03/18 11:47:03;;;;;;;0.87;0.87;;;10.10;99.90;;;;;;5055394;28;20764;-65
2024/03/18 11:49:30;;;;;;;1.93;0.87;;;10.20;99.90;;;;;;5047440;28;20240;-64
2024/03/18 11:51:58;;;;;;;1.20;1.07;;;10.30;99.90;;;;;;5049760;28;20650;-63
2024/03/18 11:54:25;;;;;;;0.83;0.60;;;10.30;99.90;;;;;;5046018;28;20217;-64
2024/03/18 11:57:01;;;;;;;0.90;0.53;;;10.40;99.90;;;;;;5048652;28;20204;-65
2024/03/18 11:59:30;;;;;;;3.03;0.70;;;10.50;99.90;;;;;;5046512;28;20762;-64
2024/03/18 12:01:58;;;;;;;1.00;0.47;;;10.40;99.90;;;;;;5049895;28;20233;-64
2024/03/18 12:04:26;;;;;;;0.77;0.50;;;10.40;99.90;;;;;;5047054;28;20287;-63
2024/03/18 12:06:54;;;;;;;0.43;0.40;;;10.40;99.90;;;;;;5049992;28;20251;-64
2024/03/18 12:09:25;;;;;;;0.90;0.30;;;10.40;99.90;;;;;;5047399;28;20252;-64
2024/03/18 12:11:52;;;;;;;1.77;0.10;;;10.40;99.90;;;;;;5045754;28;20224;-64
2024/03/18 12:14:19;;;;;;;0.10;0.10;;;10.30;99.90;;;;;;5041363;28;20228;-64
2024/03/18 12:16:53;;;;;;;2.07;0.10;;;10.30;99.90;;;;;;5039068;28;20243;-64
2024/03/18 12:19:21;;;;;;;0.10;0.10;;;10.20;99.90;;;;;;5046011;28;20626;-64
2024/03/18 12:21:49;;;;;;;0.60;0.10;;;10.10;99.90;;;;;;5034025;28;20603;-65
2024/03/18 12:29:58;;;;;;;0.10;0.10;;;10.20;99.90;;;;;;5035902;28;20213;-65
2024/03/18 12:32:26;;;;;;;0.40;0.40;;;10.20;99.90;;;;;;5036248;28;20229;-65
2024/03/18 12:34:53;;;;;;;0.20;0.20;;;10.30;99.90;;;;;;5040600;28;20307;-65
2024/03/18 12:37:22;;;;;;;0.20;0.20;;;10.40;99.90;;;;;;5036841;28;20228;-64
2024/03/18 12:39:49;;;;;;;2.03;0.20;;;10.40;99.90;;;;;;5043868;28;20211;-64
2024/03/18 12:42:16;;;;;;;0.53;0.53;;;10.50;99.90;;;;;;5041375;28;20243;-65
2024/03/18 12:44:43;;;;;;;0.30;0.30;;;10.50;99.90;;;;;;5039004;28;20270;-64
2024/03/18 12:47:12;;;;;;;0.20;0.20;;;10.50;99.90;;;;;;5043543;28;20209;-65
2024/03/18 12:49:39;;;;;;;3.20;0.73;;;10.40;99.90;;;;;;5048937;28;20228;-64
2024/03/18 12:52:10;;;;;;;0.30;0.20;;;10.30;99.90;;;;;;5045377;28;20340;-65
2024/03/18 12:54:39;;;;;;;0.23;0.23;;;10.30;99.90;;;;;;5037672;28;20247;-64
2024/03/18 12:57:06;;;;;;;0.37;0.20;;;10.30;99.90;;;;;;5032072;28;20214;-64
2024/03/18 12:59:33;;;;;;;1.40;0.50;;;10.30;99.90;;;;;;5038139;28;20222;-65
2024/03/18 13:02:01;;;;;;;0.30;0.30;;;10.30;99.90;;;;;;5050036;28;20735;-64
2024/03/18 13:04:28;;;;;;;0.67;0.30;;;10.40;99.90;;;;;;5044789;28;20198;-63
2024/03/18 13:06:57;;;;;;;0.20;0.20;;;10.20;99.90;;;;;;5033492;28;20209;-64